Time;durP1;ratioP1;P1;durP2;ratioP2;P2;SDS_P1;SDS_P2;PMS_P1;PMS_P2;Temp;Humidity;BMP_temperature;BMP_pressure;BME280_temperature;BME280_humidity;BME280_pressure;Samples;Min_cycle;Max_cycle;Signal;HPM_P1;HPM_P2
2021/09/06 00:00:52;;;;;;;17.38;11.70;;;;;;;;;;4753052;30;20047;-85
2021/09/06 00:03:17;;;;;;;20.15;11.15;;;;;;;;;;4755933;30;20039;-84
2021/09/06 00:05:42;;;;;;;15.95;11.73;;;;;;;;;;4756614;30;20460;-86
2021/09/06 00:08:08;;;;;;;16.38;11.50;;;;;;;;;;4759348;30;20511;-85
2021/09/06 00:10:42;;;;;;;17.17;11.45;;;;;;;;;;4769490;29;20035;-84
2021/09/06 00:13:12;;;;;;;17.50;10.50;;;;;;;;;;4771613;30;20103;-85
2021/09/06 00:15:38;;;;;;;14.32;11.15;;;;;;;;;;4766606;30;20039;-85
2021/09/06 00:18:04;;;;;;;17.83;11.77;;;;;;;;;;4762382;30;20064;-86
2021/09/06 00:20:31;;;;;;;16.08;11.48;;;;;;;;;;4780914;29;20039;-85
2021/09/06 00:22:56;;;;;;;14.77;11.48;;;;;;;;;;4755354;30;20027;-86
2021/09/06 00:25:22;;;;;;;19.98;12.00;;;;;;;;;;4768161;30;20107;-86
2021/09/06 00:27:47;;;;;;;16.17;11.05;;;;;;;;;;4786458;29;20042;-84
2021/09/06 00:30:13;;;;;;;18.42;12.15;;;;;;;;;;4756221;30;20035;-85
2021/09/06 00:32:39;;;;;;;17.35;12.05;;;;;;;;;;4767937;29;20479;-85
2021/09/06 00:35:05;;;;;;;16.90;10.82;;;;;;;;;;4769772;30;20586;-85
2021/09/06 00:37:30;;;;;;;16.40;11.95;;;;;;;;;;4785351;29;20039;-84
2021/09/06 00:39:56;;;;;;;15.13;11.13;;;;;;;;;;4769968;30;20118;-85
2021/09/06 00:42:21;;;;;;;16.02;11.35;;;;;;;;;;4768952;29;20031;-86
2021/09/06 00:44:47;;;;;;;15.25;10.48;;;;;;;;;;4749397;29;20070;-86
2021/09/06 00:47:12;;;;;;;17.58;11.60;;;;;;;;;;4784025;29;20054;-86
2021/09/06 00:49:38;;;;;;;15.65;11.43;;;;;;;;;;4781336;29;20484;-86
2021/09/06 00:52:04;;;;;;;16.48;12.40;;;;;;;;;;4773910;29;20114;-84
2021/09/06 00:54:30;;;;;;;16.20;11.93;;;;;;;;;;4771765;30;20499;-84
2021/09/06 00:56:55;;;;;;;15.48;11.23;;;;;;;;;;4767643;30;20226;-85
2021/09/06 00:59:21;;;;;;;18.58;12.40;;;;;;;;;;4773106;29;21794;-84
2021/09/06 01:01:47;;;;;;;18.17;12.25;;;;;;;;;;4770303;29;20039;-85
2021/09/06 01:04:12;;;;;;;18.02;11.75;;;;;;;;;;4766162;29;20377;-84
2021/09/06 01:06:37;;;;;;;17.88;11.85;;;;;;;;;;4768351;30;20043;-85
2021/09/06 01:09:03;;;;;;;16.48;12.50;;;;;;;;;;4773525;30;20429;-85
2021/09/06 01:11:28;;;;;;;17.25;11.60;;;;;;;;;;4773773;30;20047;-84
2021/09/06 01:13:54;;;;;;;15.73;11.57;;;;;;;;;;4786724;29;20211;-84
2021/09/06 01:16:22;;;;;;;17.85;11.75;;;;;;;;;;4753912;29;20050;-85
2021/09/06 01:18:47;;;;;;;17.30;12.15;;;;;;;;;;4755234;30;20040;-84
2021/09/06 01:21:14;;;;;;;15.35;11.35;;;;;;;;;;4751653;30;20046;-84
2021/09/06 01:23:39;;;;;;;15.95;11.82;;;;;;;;;;4756527;30;20047;-84
2021/09/06 01:26:05;;;;;;;15.77;12.15;;;;;;;;;;4768393;30;20042;-86
2021/09/06 01:28:30;;;;;;;19.65;12.23;;;;;;;;;;4753495;29;20126;-85
2021/09/06 01:30:56;;;;;;;15.07;11.07;;;;;;;;;;4766199;30;20063;-84
2021/09/06 01:33:21;;;;;;;14.90;11.25;;;;;;;;;;4753015;30;20042;-85
2021/09/06 01:35:46;;;;;;;17.38;12.27;;;;;;;;;;4769610;30;20036;-85
2021/09/06 01:38:12;;;;;;;17.10;12.27;;;;;;;;;;4750344;30;20043;-85
2021/09/06 01:40:38;;;;;;;15.57;11.65;;;;;;;;;;4754660;30;20054;-84
2021/09/06 01:43:03;;;;;;;17.00;11.73;;;;;;;;;;4753081;30;20047;-84
2021/09/06 01:45:29;;;;;;;17.40;12.05;;;;;;;;;;4769793;30;20035;-84
2021/09/06 01:47:54;;;;;;;19.00;12.63;;;;;;;;;;4749433;30;20051;-86
2021/09/06 01:50:20;;;;;;;18.10;13.02;;;;;;;;;;4771464;30;20027;-84
2021/09/06 01:52:45;;;;;;;16.90;11.95;;;;;;;;;;4757153;30;20557;-85
2021/09/06 01:55:11;;;;;;;19.55;12.30;;;;;;;;;;4770033;30;20097;-84
2021/09/06 01:57:36;;;;;;;16.83;12.43;;;;;;;;;;4768066;29;20043;-86
2021/09/06 02:00:03;;;;;;;19.10;12.38;;;;;;;;;;4767938;30;20097;-85
2021/09/06 02:02:28;;;;;;;15.65;11.93;;;;;;;;;;4770031;29;20395;-84
2021/09/06 02:04:54;;;;;;;17.17;12.48;;;;;;;;;;4771036;29;20031;-85
2021/09/06 02:07:19;;;;;;;16.90;12.40;;;;;;;;;;4756783;30;21084;-85
2021/09/06 02:09:45;;;;;;;18.45;12.38;;;;;;;;;;4769072;30;20039;-85
2021/09/06 02:12:10;;;;;;;18.35;12.82;;;;;;;;;;4784018;29;20119;-84
2021/09/06 02:14:36;;;;;;;16.90;12.27;;;;;;;;;;4769658;30;20560;-86
2021/09/06 02:17:01;;;;;;;17.92;12.55;;;;;;;;;;4755100;30;20104;-84
2021/09/06 02:19:27;;;;;;;19.73;12.55;;;;;;;;;;4769483;30;20207;-84
2021/09/06 02:21:52;;;;;;;18.98;12.30;;;;;;;;;;4771989;29;20043;-86
2021/09/06 02:24:18;;;;;;;18.30;12.48;;;;;;;;;;4785838;30;20035;-86
2021/09/06 02:26:43;;;;;;;18.05;12.13;;;;;;;;;;4788370;29;20042;-84
2021/09/06 02:29:10;;;;;;;19.10;12.30;;;;;;;;;;4771517;30;20035;-85
2021/09/06 02:31:36;;;;;;;18.95;12.43;;;;;;;;;;4770846;30;20085;-84
2021/09/06 02:34:01;;;;;;;19.23;12.18;;;;;;;;;;4769897;29;20131;-86
2021/09/06 02:36:26;;;;;;;16.23;11.38;;;;;;;;;;4768522;29;20061;-84
2021/09/06 02:38:52;;;;;;;17.38;12.20;;;;;;;;;;4771819;29;20047;-85
2021/09/06 02:41:17;;;;;;;16.55;12.45;;;;;;;;;;4755544;30;20126;-84
2021/09/06 02:43:43;;;;;;;16.02;11.25;;;;;;;;;;4756433;29;20385;-84
2021/09/06 02:46:09;;;;;;;19.88;12.32;;;;;;;;;;4769663;30;20095;-84
2021/09/06 02:48:34;;;;;;;18.35;13.10;;;;;;;;;;4787856;29;20125;-85
2021/09/06 02:50:59;;;;;;;19.75;13.65;;;;;;;;;;4757414;30;20488;-85
2021/09/06 02:53:25;;;;;;;19.10;12.70;;;;;;;;;;4773229;29;20035;-84
2021/09/06 02:55:50;;;;;;;17.70;13.05;;;;;;;;;;4772238;30;20096;-85
2021/09/06 02:58:16;;;;;;;18.75;13.20;;;;;;;;;;4772348;30;20089;-84
2021/09/06 03:00:41;;;;;;;18.98;13.07;;;;;;;;;;4768861;30;20035;-86
2021/09/06 03:03:07;;;;;;;19.50;12.77;;;;;;;;;;4771370;29;20449;-86
2021/09/06 03:05:32;;;;;;;18.55;12.68;;;;;;;;;;4758824;30;20047;-84
2021/09/06 03:07:58;;;;;;;18.83;13.35;;;;;;;;;;4788417;30;20440;-86
2021/09/06 03:10:24;;;;;;;17.42;12.98;;;;;;;;;;4771599;30;20031;-84
2021/09/06 03:12:50;;;;;;;18.02;12.50;;;;;;;;;;4771610;30;20131;-85
2021/09/06 03:15:15;;;;;;;18.08;12.57;;;;;;;;;;4787802;29;20042;-84
2021/09/06 03:17:40;;;;;;;19.80;14.07;;;;;;;;;;4754024;30;20480;-85
2021/09/06 03:20:06;;;;;;;18.13;13.13;;;;;;;;;;4769096;30;20453;-84
2021/09/06 03:22:32;;;;;;;19.88;12.85;;;;;;;;;;4756380;29;20035;-84
2021/09/06 03:24:57;;;;;;;19.60;13.00;;;;;;;;;;4769083;30;20491;-85
2021/09/06 03:27:23;;;;;;;19.13;12.82;;;;;;;;;;4756843;30;20062;-85
2021/09/06 03:29:48;;;;;;;18.30;13.10;;;;;;;;;;4770001;30;20131;-84
2021/09/06 03:32:14;;;;;;;17.63;12.63;;;;;;;;;;4766942;30;20069;-85
2021/09/06 03:34:39;;;;;;;17.77;12.32;;;;;;;;;;4754299;30;20039;-85
2021/09/06 03:37:05;;;;;;;19.80;12.82;;;;;;;;;;4774612;29;20039;-85
2021/09/06 03:39:31;;;;;;;17.60;12.35;;;;;;;;;;4785756;29;20499;-85
2021/09/06 03:41:56;;;;;;;16.27;11.98;;;;;;;;;;4768313;30;20122;-85
2021/09/06 03:44:24;;;;;;;18.15;12.52;;;;;;;;;;4753793;29;20096;-84
2021/09/06 03:46:50;;;;;;;18.20;12.93;;;;;;;;;;4769210;30;20419;-85
2021/09/06 03:49:15;;;;;;;17.70;11.80;;;;;;;;;;4756203;29;20031;-84
2021/09/06 03:51:40;;;;;;;17.55;12.07;;;;;;;;;;4787973;29;20114;-85
2021/09/06 03:54:06;;;;;;;18.45;12.15;;;;;;;;;;4769756;29;20047;-85
2021/09/06 03:56:31;;;;;;;17.45;12.15;;;;;;;;;;4757866;29;20027;-85
2021/09/06 03:58:57;;;;;;;16.98;11.75;;;;;;;;;;4786368;29;20055;-85
2021/09/06 04:01:22;;;;;;;18.83;13.15;;;;;;;;;;4769261;30;20027;-85
2021/09/06 04:03:48;;;;;;;18.25;12.20;;;;;;;;;;4768590;30;20039;-86
2021/09/06 04:06:13;;;;;;;16.85;12.23;;;;;;;;;;4757225;30;20407;-84
2021/09/06 04:08:38;;;;;;;17.42;12.60;;;;;;;;;;4758967;30;20035;-85
2021/09/06 04:11:04;;;;;;;17.15;12.20;;;;;;;;;;4766924;30;20492;-85
2021/09/06 04:13:29;;;;;;;19.73;13.18;;;;;;;;;;4754153;29;20136;-84
2021/09/06 04:15:55;;;;;;;18.08;12.85;;;;;;;;;;4757999;30;20133;-85
2021/09/06 04:18:20;;;;;;;17.98;12.30;;;;;;;;;;4769593;30;20089;-84
2021/09/06 04:20:45;;;;;;;20.75;13.77;;;;;;;;;;4769849;29;20046;-84
2021/09/06 04:23:11;;;;;;;20.65;12.82;;;;;;;;;;4771585;30;20391;-85
2021/09/06 04:25:36;;;;;;;20.83;13.02;;;;;;;;;;4768508;30;20130;-84
2021/09/06 04:28:02;;;;;;;20.92;13.23;;;;;;;;;;4756437;29;20047;-85
2021/09/06 04:30:27;;;;;;;18.80;13.10;;;;;;;;;;4755739;30;20047;-85
2021/09/06 04:32:53;;;;;;;19.30;13.23;;;;;;;;;;4754522;30;20046;-85
2021/09/06 04:35:18;;;;;;;18.10;13.00;;;;;;;;;;4769648;30;20035;-84
2021/09/06 04:37:44;;;;;;;19.23;13.32;;;;;;;;;;4770153;30;20035;-84
2021/09/06 04:40:10;;;;;;;18.30;12.68;;;;;;;;;;4784352;29;20053;-85
2021/09/06 04:42:35;;;;;;;20.30;13.35;;;;;;;;;;4771326;29;20050;-84
2021/09/06 04:45:01;;;;;;;20.30;12.85;;;;;;;;;;4752117;30;20035;-85
2021/09/06 04:47:27;;;;;;;18.30;13.48;;;;;;;;;;4769290;30;20142;-84
2021/09/06 04:49:52;;;;;;;18.92;13.27;;;;;;;;;;4751921;30;20126;-85
2021/09/06 04:52:18;;;;;;;18.35;13.02;;;;;;;;;;4769151;30;20035;-85
2021/09/06 04:54:43;;;;;;;19.90;13.00;;;;;;;;;;4774984;30;20031;-84
2021/09/06 04:57:08;;;;;;;19.55;13.13;;;;;;;;;;4753524;30;20035;-85
2021/09/06 04:59:34;;;;;;;18.52;13.07;;;;;;;;;;4768475;30;20043;-84
2021/09/06 05:01:59;;;;;;;20.10;12.80;;;;;;;;;;4768195;30;20067;-85
2021/09/06 05:04:25;;;;;;;17.85;12.95;;;;;;;;;;4769555;30;20133;-85
2021/09/06 05:06:50;;;;;;;17.90;12.73;;;;;;;;;;4754577;29;20572;-85
2021/09/06 05:09:15;;;;;;;18.38;12.63;;;;;;;;;;4768304;29;20422;-85
2021/09/06 05:11:41;;;;;;;17.10;12.35;;;;;;;;;;4756852;30;20088;-85
2021/09/06 05:14:06;;;;;;;19.02;13.05;;;;;;;;;;4766109;30;20557;-85
2021/09/06 05:16:32;;;;;;;17.38;11.85;;;;;;;;;;4767510;30;20126;-85
2021/09/06 05:19:05;;;;;;;17.75;12.60;;;;;;;;;;4768244;30;20468;-85
2021/09/06 05:21:33;;;;;;;17.98;12.20;;;;;;;;;;4768681;30;20051;-85
2021/09/06 05:23:58;;;;;;;19.35;12.55;;;;;;;;;;4769998;30;20055;-85
2021/09/06 05:26:25;;;;;;;18.08;12.40;;;;;;;;;;4772959;30;20514;-84
2021/09/06 05:28:51;;;;;;;19.30;12.63;;;;;;;;;;4755164;29;20028;-85
2021/09/06 05:31:16;;;;;;;17.95;12.32;;;;;;;;;;4755484;30;20027;-85
2021/09/06 05:33:42;;;;;;;19.13;12.60;;;;;;;;;;4757174;30;20039;-84
2021/09/06 05:36:07;;;;;;;18.27;12.77;;;;;;;;;;4786131;29;20122;-84
2021/09/06 05:38:33;;;;;;;18.45;12.30;;;;;;;;;;4768046;30;20112;-84
2021/09/06 05:40:59;;;;;;;17.90;12.25;;;;;;;;;;4788804;29;20039;-85
2021/09/06 05:43:24;;;;;;;18.63;12.02;;;;;;;;;;4766055;30;20069;-84
2021/09/06 05:45:49;;;;;;;19.08;12.70;;;;;;;;;;4755224;30;20077;-84
2021/09/06 05:48:19;;;;;;;21.17;13.13;;;;;;;;;;4756126;30;20059;-84
2021/09/06 05:50:47;;;;;;;19.90;12.90;;;;;;;;;;4786341;29;20043;-84
2021/09/06 05:53:15;;;;;;;19.48;12.95;;;;;;;;;;4774699;30;20035;-85
2021/09/06 05:55:43;;;;;;;21.60;14.15;;;;;;;;;;4773139;30;20411;-85
2021/09/06 05:58:15;;;;;;;19.92;14.65;;;;;;;;;;4771695;30;20039;-85
2021/09/06 06:00:40;;;;;;;21.23;13.57;;;;;;;;;;4787147;29;20440;-85
2021/09/06 06:03:07;;;;;;;22.10;14.20;;;;;;;;;;4757176;29;20134;-84
2021/09/06 06:05:33;;;;;;;20.02;14.13;;;;;;;;;;4769041;30;20050;-85
2021/09/06 06:07:59;;;;;;;22.13;14.05;;;;;;;;;;4770965;30;20031;-85
2021/09/06 06:10:25;;;;;;;20.77;14.15;;;;;;;;;;4790020;29;20552;-85
2021/09/06 06:12:51;;;;;;;20.85;13.70;;;;;;;;;;4775883;29;20046;-85
2021/09/06 06:15:16;;;;;;;20.35;12.18;;;;;;;;;;4766545;29;20043;-85
2021/09/06 06:17:43;;;;;;;19.13;13.25;;;;;;;;;;4754258;29;20081;-84
2021/09/06 06:20:14;;;;;;;18.52;13.23;;;;;;;;;;4758972;30;20044;-84
2021/09/06 06:22:40;;;;;;;22.63;13.85;;;;;;;;;;4753906;30;20051;-85
2021/09/06 06:25:06;;;;;;;24.25;14.25;;;;;;;;;;4773445;30;20042;-84
2021/09/06 06:27:31;;;;;;;18.98;13.43;;;;;;;;;;4774041;29;20051;-84
2021/09/06 06:29:57;;;;;;;22.33;14.43;;;;;;;;;;4771962;30;20046;-85
2021/09/06 06:32:22;;;;;;;21.30;13.70;;;;;;;;;;4784693;29;20466;-84
2021/09/06 06:34:48;;;;;;;21.13;14.18;;;;;;;;;;4783155;29;20043;-85
2021/09/06 06:37:14;;;;;;;19.67;14.20;;;;;;;;;;4770522;29;20035;-84
2021/09/06 06:39:39;;;;;;;22.42;16.10;;;;;;;;;;4778549;30;20792;-84
2021/09/06 06:42:05;;;;;;;24.30;17.00;;;;;;;;;;4771658;30;20133;-85
2021/09/06 06:44:30;;;;;;;25.25;17.23;;;;;;;;;;4770603;30;20073;-84
2021/09/06 06:46:59;;;;;;;26.85;16.38;;;;;;;;;;4792617;29;20151;-85
2021/09/06 06:49:24;;;;;;;24.60;16.23;;;;;;;;;;4775263;29;20171;-84
2021/09/06 06:51:52;;;;;;;24.33;16.00;;;;;;;;;;4752382;30;20575;-83
2021/09/06 06:54:17;;;;;;;24.95;15.38;;;;;;;;;;4778204;30;20142;-84
2021/09/06 06:56:44;;;;;;;28.13;16.63;;;;;;;;;;4781508;29;20482;-84
2021/09/06 06:59:09;;;;;;;24.17;15.32;;;;;;;;;;4768566;29;20069;-83
2021/09/06 07:01:35;;;;;;;24.17;15.85;;;;;;;;;;4780709;29;20035;-85
2021/09/06 07:04:00;;;;;;;27.70;16.85;;;;;;;;;;4780518;29;20326;-84
2021/09/06 07:06:26;;;;;;;24.40;15.77;;;;;;;;;;4752232;29;20047;-83
2021/09/06 07:08:55;;;;;;;24.70;15.35;;;;;;;;;;4750727;30;20053;-85
2021/09/06 07:11:21;;;;;;;26.05;16.45;;;;;;;;;;4770878;29;20044;-83
2021/09/06 07:13:46;;;;;;;25.50;16.88;;;;;;;;;;4749414;29;20047;-84
2021/09/06 07:16:11;;;;;;;27.88;16.55;;;;;;;;;;4768390;30;20541;-84
2021/09/06 07:18:37;;;;;;;25.83;16.85;;;;;;;;;;4768657;29;20393;-84
2021/09/06 07:21:02;;;;;;;25.35;16.95;;;;;;;;;;4773190;30;20035;-85
2021/09/06 07:23:28;;;;;;;29.10;17.38;;;;;;;;;;4758446;29;20041;-85
2021/09/06 07:25:53;;;;;;;27.83;17.60;;;;;;;;;;4792295;29;20047;-83
2021/09/06 07:28:20;;;;;;;29.88;17.25;;;;;;;;;;4772095;30;20484;-85
2021/09/06 07:30:46;;;;;;;27.38;17.50;;;;;;;;;;4759117;30;20046;-85
2021/09/06 07:33:11;;;;;;;28.23;17.58;;;;;;;;;;4761742;29;20035;-84
2021/09/06 07:35:39;;;;;;;29.55;18.95;;;;;;;;;;4774232;29;20121;-84
2021/09/06 07:38:09;;;;;;;28.10;18.77;;;;;;;;;;4758506;30;20043;-82
2021/09/06 07:40:35;;;;;;;28.77;18.00;;;;;;;;;;4789124;29;20031;-84
2021/09/06 07:43:00;;;;;;;29.17;20.30;;;;;;;;;;4742078;29;20054;-84
2021/09/06 07:45:28;;;;;;;31.45;18.45;;;;;;;;;;4784135;29;20119;-85
2021/09/06 07:47:53;;;;;;;28.52;18.92;;;;;;;;;;4763610;30;20051;-85
2021/09/06 07:50:19;;;;;;;34.83;19.63;;;;;;;;;;4773482;29;20441;-85
2021/09/06 07:52:46;;;;;;;33.00;20.10;;;;;;;;;;4770983;29;20396;-85
2021/09/06 07:55:12;;;;;;;28.40;18.77;;;;;;;;;;4773415;30;20027;-84
2021/09/06 07:57:42;;;;;;;29.55;18.67;;;;;;;;;;4780955;30;20072;-84
2021/09/06 08:00:10;;;;;;;25.83;17.80;;;;;;;;;;4773218;30;20037;-83
2021/09/06 08:02:48;;;;;;;31.58;19.90;;;;;;;;;;4795542;29;20054;-83
2021/09/06 08:05:13;;;;;;;28.95;18.38;;;;;;;;;;4773945;29;20039;-83
2021/09/06 08:07:39;;;;;;;29.48;18.95;;;;;;;;;;4774958;29;20039;-83
2021/09/06 08:10:06;;;;;;;31.60;18.10;;;;;;;;;;4788188;29;20066;-83
2021/09/06 08:12:31;;;;;;;28.73;18.63;;;;;;;;;;4761676;29;20035;-83
2021/09/06 08:14:56;;;;;;;31.95;18.48;;;;;;;;;;4743869;30;20043;-83
2021/09/06 08:17:22;;;;;;;29.23;18.13;;;;;;;;;;4773730;30;20114;-83
2021/09/06 08:19:47;;;;;;;28.20;17.58;;;;;;;;;;4758774;29;20072;-82
2021/09/06 08:22:13;;;;;;;34.08;19.30;;;;;;;;;;4773737;29;20035;-84
2021/09/06 08:24:41;;;;;;;26.13;17.50;;;;;;;;;;4758272;29;20130;-83
2021/09/06 08:27:06;;;;;;;25.23;18.23;;;;;;;;;;4761740;30;20032;-83
2021/09/06 08:29:34;;;;;;;27.55;17.60;;;;;;;;;;4757417;30;20031;-83
2021/09/06 08:32:00;;;;;;;26.33;17.77;;;;;;;;;;4751075;29;20035;-84
2021/09/06 08:34:25;;;;;;;26.23;17.75;;;;;;;;;;4770065;29;20031;-83
2021/09/06 08:36:51;;;;;;;29.98;17.77;;;;;;;;;;4772818;30;20395;-83
2021/09/06 08:39:16;;;;;;;28.33;18.48;;;;;;;;;;4788081;29;20039;-84
2021/09/06 08:41:43;;;;;;;26.38;17.45;;;;;;;;;;4753251;29;20089;-83
2021/09/06 08:44:09;;;;;;;26.58;17.73;;;;;;;;;;4790196;29;20095;-83
2021/09/06 08:46:35;;;;;;;28.23;17.95;;;;;;;;;;4771780;30;20134;-84
2021/09/06 08:49:01;;;;;;;25.85;16.70;;;;;;;;;;4756506;29;20043;-84
2021/09/06 08:51:26;;;;;;;27.38;17.92;;;;;;;;;;4773340;29;20796;-84
2021/09/06 08:53:52;;;;;;;28.05;17.33;;;;;;;;;;4770693;30;20035;-84
2021/09/06 08:56:30;;;;;;;24.45;17.40;;;;;;;;;;4767279;29;20039;-85
2021/09/06 08:59:24;;;;;;;22.08;16.05;;;;;;;;;;4782368;29;20376;-84
2021/09/06 09:01:52;;;;;;;25.42;16.75;;;;;;;;;;4781162;29;20165;-84
2021/09/06 09:04:26;;;;;;;25.40;16.25;;;;;;;;;;4752970;29;20047;-85
2021/09/06 09:06:57;;;;;;;23.92;16.08;;;;;;;;;;4759213;29;20039;-84
2021/09/06 09:09:54;;;;;;;25.83;16.52;;;;;;;;;;4786780;29;20058;-85
2021/09/06 09:12:28;;;;;;;23.55;15.80;;;;;;;;;;4773545;30;20123;-84
2021/09/06 09:17:55;;;;;;;23.30;14.52;;;;;;;;;;4769552;29;20045;-85
2021/09/06 09:20:38;;;;;;;24.58;15.55;;;;;;;;;;4769697;30;20043;-84
2021/09/06 09:23:16;;;;;;;;;;;;;;;;;;4751469;29;20072;-84
2021/09/06 09:26:00;;;;;;;24.33;15.60;;;;;;;;;;4767995;29;19918;-84
2021/09/06 09:28:28;;;;;;;23.10;14.85;;;;;;;;;;4772253;30;20031;-85
2021/09/06 09:31:26;;;;;;;21.75;14.00;;;;;;;;;;4771342;30;20411;-84
2021/09/06 09:33:58;;;;;;;20.60;13.30;;;;;;;;;;4790448;29;20031;-85
2021/09/06 09:39:31;;;;;;;19.65;13.75;;;;;;;;;;4784450;29;20070;-84
2021/09/06 09:42:29;;;;;;;18.50;12.02;;;;;;;;;;4745736;29;20130;-84
2021/09/06 09:45:01;;;;;;;20.15;11.88;;;;;;;;;;4772851;29;20409;-85
2021/09/06 09:47:30;;;;;;;18.90;11.77;;;;;;;;;;4780807;29;20079;-85
2021/09/06 09:50:02;;;;;;;22.05;13.30;;;;;;;;;;4767471;30;20038;-84
2021/09/06 09:52:31;;;;;;;18.45;12.50;;;;;;;;;;4772300;29;20035;-84
2021/09/06 09:55:03;;;;;;;17.45;12.23;;;;;;;;;;4762251;30;20519;-84
2021/09/06 09:57:32;;;;;;;18.15;11.93;;;;;;;;;;4766702;30;20140;-84
2021/09/06 10:00:04;;;;;;;15.02;10.30;;;;;;;;;;4772055;29;20491;-84
2021/09/06 10:02:35;;;;;;;16.50;11.05;;;;;;;;;;4754189;30;20131;-84
2021/09/06 10:05:06;;;;;;;16.73;10.45;;;;;;;;;;4781610;29;20055;-85
2021/09/06 10:07:39;;;;;;;16.63;11.00;;;;;;;;;;4770832;30;20088;-84
2021/09/06 10:10:35;;;;;;;15.23;10.82;;;;;;;;;;4767307;29;20035;-85
2021/09/06 10:13:05;;;;;;;14.43;9.90;;;;;;;;;;4766704;29;20046;-85
2021/09/06 10:15:36;;;;;;;17.27;10.68;;;;;;;;;;4772896;30;20067;-84
2021/09/06 10:18:38;;;;;;;17.33;11.73;;;;;;;;;;4755529;29;20046;-84
2021/09/06 10:21:39;;;;;;;16.83;11.55;;;;;;;;;;4770618;29;20547;-85
2021/09/06 10:24:36;;;;;;;16.70;11.77;;;;;;;;;;4766175;29;20114;-84
2021/09/06 10:27:07;;;;;;;19.25;11.48;;;;;;;;;;4768595;30;20043;-84
2021/09/06 10:29:39;;;;;;;18.20;12.07;;;;;;;;;;4785825;29;20863;-85
2021/09/06 10:32:07;;;;;;;18.58;12.13;;;;;;;;;;4768621;30;20031;-84
2021/09/06 10:34:39;;;;;;;17.70;11.80;;;;;;;;;;4771093;30;20042;-84
2021/09/06 10:37:07;;;;;;;16.60;11.43;;;;;;;;;;4775561;30;20043;-84
2021/09/06 10:40:42;;;;;;;16.77;11.30;;;;;;;;;;4763167;30;21838;-84
2021/09/06 10:43:40;;;;;;;18.40;11.25;;;;;;;;;;4770812;30;20039;-84
2021/09/06 10:46:12;;;;;;;15.63;10.30;;;;;;;;;;4762878;29;20495;-84
2021/09/06 10:48:44;;;;;;;13.88;9.93;;;;;;;;;;4775309;30;20070;-84
2021/09/06 10:51:10;;;;;;;17.67;10.02;;;;;;;;;;4786675;30;20139;-84
2021/09/06 10:53:42;;;;;;;15.20;9.70;;;;;;;;;;4786842;29;20077;-85
2021/09/06 10:56:11;;;;;;;13.43;9.77;;;;;;;;;;4784996;29;20042;-85
2021/09/06 11:02:12;;;;;;;13.90;8.55;;;;;;;;;;4755171;29;20046;-85
2021/09/06 11:05:13;;;;;;;11.52;8.30;;;;;;;;;;4768809;30;20043;-85
2021/09/06 11:07:45;;;;;;;13.70;8.52;;;;;;;;;;4729723;29;20039;-85
2021/09/06 11:13:14;;;;;;;18.35;10.35;;;;;;;;;;4783992;29;20977;-86
2021/09/06 11:15:46;;;;;;;15.68;9.80;;;;;;;;;;4754417;30;20046;-85
2021/09/06 11:18:14;;;;;;;14.82;9.35;;;;;;;;;;4772087;29;20038;-84
2021/09/06 11:20:46;;;;;;;17.13;10.63;;;;;;;;;;4783045;29;20039;-85
2021/09/06 11:23:18;;;;;;;14.57;8.63;;;;;;;;;;4755192;30;20043;-85
2021/09/06 11:29:17;;;;;;;10.73;6.90;;;;;;;;;;4786283;29;20058;-85
2021/09/06 11:34:49;;;;;;;16.13;8.95;;;;;;;;;;4749148;30;20519;-85
2021/09/06 11:37:19;;;;;;;12.18;8.20;;;;;;;;;;4717518;30;20036;-85
2021/09/06 11:39:51;;;;;;;14.70;8.27;;;;;;;;;;4748604;30;20091;-86
2021/09/06 11:42:19;;;;;;;12.15;8.45;;;;;;;;;;4745723;30;20040;-85
2021/09/06 11:44:51;;;;;;;9.70;7.25;;;;;;;;;;4744994;30;20067;-85
2021/09/06 11:47:49;;;;;;;12.43;7.57;;;;;;;;;;4742522;30;20040;-85
2021/09/06 11:54:25;;;;;;;10.23;6.30;;;;;;;;;;4711849;30;20509;-85
2021/09/06 11:57:50;;;;;;;13.75;8.02;;;;;;;;;;4710846;30;20140;-85
2021/09/06 12:00:23;;;;;;;10.90;7.38;;;;;;;;;;4733173;30;20658;-85
2021/09/06 12:06:56;;;;;;;11.85;7.18;;;;;;;;;;4747194;30;20060;-85
2021/09/06 12:09:53;;;;;;;14.43;7.28;;;;;;;;;;4745188;30;20421;-85
2021/09/06 12:12:35;;;;;;;;;;;;;;;;;;;;;
2021/09/06 12:15:54;;;;;;;13.07;8.15;;;;;;;;;;4745666;30;20386;-85
2021/09/06 12:18:57;;;;;;;13.98;8.18;;;;;;;;;;4740119;30;20097;-85
2021/09/06 12:22:25;;;;;;;11.88;7.85;;;;;;;;;;4708651;30;20051;-85
2021/09/06 12:25:25;;;;;;;13.88;8.52;;;;;;;;;;4691916;30;20553;-85
2021/09/06 12:28:25;;;;;;;14.77;10.13;;;;;;;;;;4695580;30;20048;-85
2021/09/06 12:34:28;;;;;;;12.18;8.27;;;;;;;;;;4712634;30;20080;-85
2021/09/06 12:40:00;;;;;;;13.88;9.00;;;;;;;;;;4712245;30;20111;-85
2021/09/06 12:42:28;;;;;;;16.63;9.93;;;;;;;;;;4709467;30;20114;-85
2021/09/06 12:45:00;;;;;;;14.38;8.90;;;;;;;;;;4697289;30;20068;-85
2021/09/06 12:47:28;;;;;;;14.27;8.73;;;;;;;;;;4709309;30;20596;-85
2021/09/06 12:50:00;;;;;;;12.77;8.73;;;;;;;;;;4697692;30;20123;-86
2021/09/06 12:52:31;;;;;;;13.98;8.82;;;;;;;;;;4712859;30;20065;-85
2021/09/06 12:55:02;;;;;;;13.45;7.97;;;;;;;;;;4698262;30;20037;-85
2021/09/06 13:01:05;;;;;;;12.05;7.80;;;;;;;;;;4735822;30;20060;-85
2021/09/06 13:03:31;;;;;;;12.20;7.97;;;;;;;;;;4731339;30;21552;-85
2021/09/06 13:06:03;;;;;;;11.70;7.43;;;;;;;;;;4770585;30;20040;-85
2021/09/06 13:08:32;;;;;;;12.05;7.75;;;;;;;;;;4772147;29;20107;-85
2021/09/06 13:11:03;;;;;;;12.13;7.85;;;;;;;;;;4776866;29;20463;-85
2021/09/06 13:17:05;;;;;;;14.10;8.65;;;;;;;;;;4774799;30;20058;-85
2021/09/06 13:19:33;;;;;;;14.38;8.27;;;;;;;;;;4785876;29;20115;-85
2021/09/06 13:22:05;;;;;;;11.30;8.50;;;;;;;;;;4754528;29;20043;-85
2021/09/06 13:25:06;;;;;;;18.20;8.57;;;;;;;;;;4771756;29;20043;-85
2021/09/06 13:27:36;;;;;;;13.07;9.07;;;;;;;;;;4786935;29;20391;-86
2021/09/06 13:30:11;;;;;;;17.80;8.68;;;;;;;;;;4764919;29;20040;-86
2021/09/06 13:33:05;;;;;;;12.88;8.75;;;;;;;;;;4754776;29;20077;-85
2021/09/06 13:35:37;;;;;;;12.77;8.85;;;;;;;;;;4772126;30;20488;-86
2021/09/06 13:38:41;;;;;;;11.88;7.85;;;;;;;;;;4751982;30;20555;-85
2021/09/06 13:41:09;;;;;;;13.57;8.60;;;;;;;;;;4785826;29;20372;-85
2021/09/06 13:43:37;;;;;;;12.45;9.00;;;;;;;;;;4770954;30;20039;-85
2021/09/06 13:46:09;;;;;;;13.45;9.07;;;;;;;;;;4758841;30;20031;-85
2021/09/06 13:48:41;;;;;;;12.98;8.77;;;;;;;;;;4787872;29;20059;-85
2021/09/06 13:54:44;;;;;;;15.32;9.43;;;;;;;;;;4789960;29;20096;-84
2021/09/06 13:57:11;;;;;;;13.32;8.85;;;;;;;;;;4770544;29;20036;-85
2021/09/06 14:03:13;;;;;;;15.00;8.73;;;;;;;;;;4787184;29;20560;-85
2021/09/06 14:05:42;;;;;;;13.60;7.93;;;;;;;;;;4769690;29;20031;-86
2021/09/06 14:08:11;;;;;;;13.43;8.23;;;;;;;;;;4772961;29;21853;-86
2021/09/06 14:10:43;;;;;;;13.90;8.98;;;;;;;;;;4769298;29;20043;-85
2021/09/06 14:13:42;;;;;;;12.07;7.47;;;;;;;;;;4778433;30;20088;-86
2021/09/06 14:16:13;;;;;;;13.25;9.13;;;;;;;;;;4775468;29;20496;-85
2021/09/06 14:26:14;;;;;;;15.73;8.68;;;;;;;;;;4747740;30;20036;-85
2021/09/06 14:28:45;;;;;;;11.65;7.38;;;;;;;;;;4739439;30;20036;-86
2021/09/06 14:35:16;;;;;;;12.07;8.20;;;;;;;;;;4936136;24;20135;-86
2021/09/06 14:38:18;;;;;;;15.80;9.27;;;;;;;;;;4752692;30;20101;-86
2021/09/06 14:41:58;;;;;;;;;;;;;;;;;;;;;
2021/09/06 14:44:48;;;;;;;14.75;8.85;;;;;;;;;;4684313;30;20052;-86
2021/09/06 14:47:49;;;;;;;13.13;8.88;;;;;;;;;;4698812;30;20049;-86
2021/09/06 14:50:18;;;;;;;16.30;9.13;;;;;;;;;;4700928;30;20089;-86
2021/09/06 15:03:21;;;;;;;15.43;10.18;;;;;;;;;;4679161;30;20041;-86
2021/09/06 15:09:22;;;;;;;16.08;11.32;;;;;;;;;;4643610;30;20591;-86
2021/09/06 15:12:24;;;;;;;16.67;10.77;;;;;;;;;;4607022;30;20097;-86
2021/09/06 15:21:23;;;;;;;15.48;10.60;;;;;;;;;;4651352;30;20155;-86
2021/09/06 15:23:54;;;;;;;18.58;11.52;;;;;;;;;;4617428;30;20084;-86
2021/09/06 15:30:24;;;;;;;19.85;12.15;;;;;;;;;;4646139;30;20049;-86
2021/09/06 15:37:28;;;;;;;19.50;11.95;;;;;;;;;;4706563;30;20972;-85
2021/09/06 15:43:58;;;;;;;18.40;11.73;;;;;;;;;;4748527;30;20051;-86
2021/09/06 15:50:09;;;;;;;;;;;;;;;;;;;;;
2021/09/06 15:53:01;;;;;;;20.48;14.02;;;;;;;;;;4727791;30;20057;-86
2021/09/06 15:55:30;;;;;;;18.88;12.27;;;;;;;;;;4725921;30;20024;-85
2021/09/06 15:58:04;;;;;;;17.73;11.65;;;;;;;;;;4720068;30;20044;-86
2021/09/06 16:00:30;;;;;;;17.02;11.30;;;;;;;;;;4724507;30;20048;-86
2021/09/06 16:03:02;;;;;;;18.50;12.07;;;;;;;;;;4702494;30;20049;-86
2021/09/06 16:05:32;;;;;;;17.98;11.75;;;;;;;;;;4714473;30;20123;-85
2021/09/06 16:08:32;;;;;;;18.60;11.93;;;;;;;;;;4761848;29;20054;-86
2021/09/06 16:11:00;;;;;;;16.73;12.18;;;;;;;;;;4779101;29;20027;-85
2021/09/06 16:13:32;;;;;;;17.80;12.27;;;;;;;;;;4808051;29;20035;-86
2021/09/06 16:17:01;;;;;;;15.95;11.48;;;;;;;;;;4782613;29;20038;-86
2021/09/06 16:19:33;;;;;;;19.10;12.88;;;;;;;;;;4743804;30;20115;-86